Aérodrome :
LOGIN :

S'inscrire | Disclaimer

   EN    FR    IT 

 










Légende :    VFR   VFR Marginal   IFR   IFR Intensif   IFR Très Intensif
Visi : 
Plafond : 
>= 8 km
>= 3000ft
5 à 8 km
1000 à 3000 ft
1500m à 5 km
500 à 1000 ft
800 à 1500m
200 à 500 ft
< 800m
< 200 ft
Symboles :   Orages  Brouillard  Fortes neiges  Fortes précipitations  Vent > 20 kt
SIGMETs :   Divers  Orages  Givrage  Turbulence  Onde Orograph.  Cendres Volcan.







- Altitude de l'aérodrome : 200 ft


EBBL - Klein Brogel AB

DERNIER METAR :
  • 172152Z AUTO VRB02KT 1400 -SN BKN008/// OVC047/// 00/00 Q1014 AMB

METARs EXPIRÉS :
  • 172142Z AUTO VRB02KT 3300 -SN BKN015/// OVC045/// 00/00 Q1014 YLO
  • 172133Z AUTO 27003KT 9999 SCT024/// BKN046/// 00/00 Q1014 WHT
  • 172055Z AUTO 26007KT 5000 -SN OVC004/// 00/00 Q1013 YLO
  • 172034Z AUTO 28006KT 3500 -SN BKN007/// BKN054/// 01/00 Q1013 YLO
  • 172024Z AUTO 27008KT 9999 -RA SCT022/// BKN054/// 01/00 Q1013 WHT
  • 171955Z AUTO 25007KT 9999 NCD 01/00 Q1012 BLU
  • 171925Z AUTO 26006KT 9999 FEW034/// 01/00 Q1011 BLU
  • 171855Z AUTO 28007KT 9999 FEW007/// 01/00 Q1011 BLU

TAF TAF EBBL
Valide du 17 à 19h jusqu'au 18 à 07h UTC


171541Z 1719/1807 28006KT 9999 SCT020
PROB30
TEMPO 1800/1802 6000 -SHRASN -SHGS SCT010 BKN017
BECMG 1804/1806 27003KT 5000 MIFG SKC
Pas de NOTAMs connus pour ce terrain.



MET'MAP, la Météo Aéronautique d'un coup d'oeil ! - Copyright ORBIFLY Décembre 2007 - Disclaimer

ORBIFLY MET'MAP TEAM :

Programmation & Développement : Alexandra Zaïnal
Conception & Développement : Baudouin d'Aumeries
Co-Programmation & Développement : Marc-Olivier Méhu
Soutien technique & logistique : Manuel Goepfert

Contact : metmap@orbifly.com




SOURCES & CREDITS :

   NOAA